PILOTS ONLINE: 611    ATC ONLINE: 111

CYSY - Sachs Harbour (David Nasogaluak Jr. Saaryuaq) Airport

Location

IATA YSY
City Sachs Harbour
Country  Canada
Latitude 71° 59' 38" N
Longitude 125° 14' 34" W
Elevation 282 ft
Type Medium Airport

Runways

08T/26T 4000 ft / 100 ft

Weather

METAR
2014/07/31 19:00
CYSY 311900Z 33015KT 10SM -RA OVC008 03/01 A3005 RMK SC8 SLP183
TAF
2014/07/31 19:00
TAF CYSY 311838Z 3119/3123 32015KT 2SM -RASN BR OVC003 
      TEMPO 3119/3123 P6SM -RA OVC008 
      RMK NXT FCST WILL BE ISSUED AT 011445Z

Outbound flights

Inbound flights